Athens, Ohio
Current Conditions -  °F | °C
As of 6:15 PM on Saturday 25 Oct 2014 (Local Time) from KUNI Reporting Station
Clear Clear  
Wind Chill: 66°   Ceiling: Unl
Heat Index: 66°   Visibility: 10mi
Dew Point: 53°   Wind: 13mph
Humidity: 63%   Direction: 240°WSW
Pressure: 29.88"   Gusts: 18mph
Location:  39.33°N, 82.1°W
Report Text: KUNI 252215Z AUTO 24011G16KT 10SM CLR 19/12 A2988 RMK AO2 T01870116
Loading
Personal Weather Stations






























Interactive Weather Map New forecast layout! Learn more

10-Day Weather Forecast

Advertisements
Track Severe Weather on mobile